createdAt,value
2023-02-07T00:01:23.969Z,1.05
2023-02-07T00:04:11.852Z,1.48
2023-02-07T00:06:45.944Z,1.35
2023-02-07T00:09:32.825Z,1.95
2023-02-07T00:12:13.840Z,1.10
2023-02-07T00:15:07.814Z,0.63
2023-02-07T00:17:55.808Z,2.40
2023-02-07T00:20:29.929Z,1.73
2023-02-07T00:23:17.829Z,0.98
2023-02-07T00:25:52.881Z,2.03
2023-02-07T00:28:40.913Z,0.98
2023-02-07T00:31:21.904Z,1.83
2023-02-07T00:34:17.812Z,1.38
2023-02-07T00:37:05.820Z,1.20
2023-02-07T00:39:46.861Z,2.42
2023-02-07T00:42:33.854Z,1.52
2023-02-07T00:45:07.943Z,1.45
2023-02-07T00:47:54.857Z,2.25
2023-02-07T00:50:35.827Z,1.98
2023-02-07T00:53:29.861Z,1.40
2023-02-07T00:56:17.855Z,1.65
2023-02-07T00:58:51.934Z,0.55
2023-02-07T01:01:38.894Z,0.88
2023-02-07T01:04:12.948Z,1.38
2023-02-07T01:06:59.837Z,2.03
2023-02-07T01:09:40.815Z,3.00
2023-02-07T01:12:28.833Z,3.58
2023-02-07T01:15:02.902Z,2.63
2023-02-07T01:17:49.859Z,1.17
2023-02-07T01:20:30.832Z,1.77
2023-02-07T01:23:19.873Z,1.08
2023-02-07T01:25:54.002Z,1.38
2023-02-07T01:28:40.831Z,1.00
2023-02-07T01:31:25.936Z,1.20
2023-02-07T01:34:12.847Z,0.73
2023-02-07T01:36:53.828Z,1.35
2023-02-07T01:39:47.816Z,1.17
2023-02-07T01:42:35.824Z,1.17
2023-02-07T01:45:13.273Z,0.98
2023-02-07T01:48:00.873Z,0.32
2023-02-07T01:50:41.816Z,1.40
2023-02-07T01:53:31.849Z,0.28
2023-02-07T01:56:09.107Z,0.60
2023-02-07T01:58:55.849Z,1.20
2023-02-07T02:01:39.876Z,1.45
2023-02-07T02:04:27.837Z,2.05
2023-02-07T02:07:15.094Z,1.13
2023-02-07T02:10:08.816Z,1.63
2023-02-07T02:12:55.876Z,1.45
2023-02-07T02:15:29.916Z,2.00
2023-02-07T02:18:42.830Z,0.45
2023-02-07T02:21:26.834Z,0.93
2023-02-07T02:24:39.842Z,1.52
2023-02-07T02:27:39.829Z,0.93
2023-02-07T02:30:13.904Z,1.55
2023-02-07T02:33:06.857Z,1.25
2023-02-07T02:35:56.109Z,1.27
2023-02-07T02:38:55.847Z,0.65
2023-02-07T02:41:41.860Z,1.10
2023-02-07T02:44:40.832Z,1.40
2023-02-07T02:47:23.832Z,1.50
2023-02-07T02:50:11.843Z,0.65
2023-02-07T02:52:51.024Z,0.65
2023-02-07T02:55:56.817Z,1.45
2023-02-07T02:58:55.873Z,1.45
2023-02-07T03:01:52.832Z,0.57
2023-02-07T03:04:38.842Z,1.08
2023-02-07T03:07:38.904Z,0.82
2023-02-07T03:10:30.856Z,1.50
2023-02-07T03:13:16.937Z,1.30
2023-02-07T03:16:06.893Z,1.50
2023-02-07T03:21:38.816Z,1.25
2023-02-07T03:24:16.934Z,2.00
2023-02-07T03:27:06.823Z,0.73
2023-02-07T03:29:50.846Z,0.80
2023-02-07T03:32:49.814Z,1.20
2023-02-07T03:35:40.175Z,1.42
2023-02-07T03:38:21.832Z,1.13
2023-02-07T03:41:14.832Z,0.70
2023-02-07T03:43:56.861Z,2.05
2023-02-07T03:46:44.893Z,1.83
2023-02-07T03:49:32.848Z,1.20
2023-02-07T03:52:12.828Z,1.52
2023-02-07T03:55:00.877Z,1.27
2023-02-07T03:57:41.869Z,1.75
2023-02-07T04:00:29.853Z,0.77
2023-02-07T04:03:04.169Z,1.15
2023-02-07T04:05:51.867Z,1.77
2023-02-07T04:08:25.800Z,3.22
2023-02-07T04:11:14.863Z,0.80
2023-02-07T04:13:54.885Z,1.10
2023-02-07T04:16:35.942Z,0.32
2023-02-07T04:19:15.828Z,1.20
2023-02-07T04:21:56.960Z,2.55
2023-02-07T04:24:38.850Z,1.92
2023-02-07T04:27:19.955Z,11.68
2023-02-07T04:29:59.830Z,5.32
2023-02-07T04:32:40.898Z,5.82
2023-02-07T04:35:27.875Z,1.23
2023-02-07T04:38:01.940Z,18.73
2023-02-07T04:40:48.845Z,32.05
2023-02-07T04:43:22.928Z,6.85
2023-02-07T04:46:11.947Z,2.33
2023-02-07T04:48:45.925Z,1.17
2023-02-07T04:51:33.873Z,1.63
2023-02-07T04:54:07.955Z,1.92
2023-02-07T04:56:55.865Z,1.35
2023-02-07T04:59:36.849Z,2.05
2023-02-07T05:02:30.860Z,2.58
2023-02-07T05:05:17.844Z,4.00
2023-02-07T05:07:58.864Z,10.73
2023-02-07T05:10:46.835Z,4.72
2023-02-07T05:13:27.869Z,2.63
2023-02-07T05:16:14.863Z,1.08
2023-02-07T05:18:48.916Z,3.92
2023-02-07T05:21:35.889Z,2.50
2023-02-07T05:24:16.833Z,1.13
2023-02-07T05:26:57.871Z,1.38
2023-02-07T05:29:45.905Z,3.63
2023-02-07T05:32:44.853Z,3.47
2023-02-07T05:35:32.833Z,1.65
2023-02-07T05:38:15.840Z,1.92
2023-02-07T05:41:03.864Z,2.70
2023-02-07T05:43:37.805Z,4.68
2023-02-07T05:46:25.912Z,5.05
2023-02-07T05:48:59.810Z,3.35
2023-02-07T05:51:47.847Z,5.50
2023-02-07T05:54:21.910Z,1.45
2023-02-07T05:57:09.853Z,3.30
2023-02-07T05:59:43.796Z,3.97
2023-02-07T06:02:31.900Z,3.13
2023-02-07T06:05:06.016Z,3.38
2023-02-07T06:07:53.841Z,2.47
2023-02-07T06:10:47.829Z,2.38
2023-02-07T06:13:34.860Z,3.28
2023-02-07T06:16:10.715Z,3.85
2023-02-07T06:18:58.861Z,4.30
2023-02-07T06:21:46.373Z,2.72
2023-02-07T06:24:33.870Z,3.35
2023-02-07T06:27:07.964Z,2.20
2023-02-07T06:29:54.853Z,4.22
2023-02-07T06:32:35.866Z,2.65
2023-02-07T06:35:23.860Z,5.32
2023-02-07T06:38:04.885Z,3.58
2023-02-07T06:40:52.853Z,1.67
2023-02-07T06:43:26.944Z,2.78
2023-02-07T06:46:14.886Z,3.25
2023-02-07T06:48:55.836Z,3.85
2023-02-07T06:51:49.861Z,13.77
2023-02-07T06:57:11.070Z,4.03
2023-02-07T06:59:57.839Z,2.53
2023-02-07T07:02:39.955Z,1.77
2023-02-07T07:05:19.840Z,1.40
2023-02-07T07:08:01.025Z,1.27
2023-02-07T07:10:41.863Z,0.63
2023-02-07T07:13:23.126Z,3.10
2023-02-07T07:16:02.903Z,7.00
2023-02-07T07:18:50.874Z,2.38
2023-02-07T07:21:32.830Z,2.25
2023-02-07T07:24:20.862Z,2.75
2023-02-07T07:26:56.563Z,2.55
2023-02-07T07:29:43.882Z,5.45
2023-02-07T07:32:32.115Z,2.85
2023-02-07T07:35:13.835Z,3.47
2023-02-07T07:37:54.869Z,4.38
2023-02-07T07:40:34.840Z,3.03
2023-02-07T07:43:15.980Z,4.85
2023-02-07T07:46:03.840Z,4.15
2023-02-07T07:48:44.961Z,7.15
2023-02-07T07:51:25.845Z,3.35
2023-02-07T07:54:19.860Z,2.80
2023-02-07T07:57:06.848Z,3.85
2023-02-07T07:59:40.917Z,4.85
2023-02-07T08:02:28.840Z,4.65
2023-02-07T08:05:02.910Z,4.47
2023-02-07T08:07:50.850Z,2.90
2023-02-07T08:10:24.954Z,3.75
2023-02-07T08:13:12.832Z,4.25
2023-02-07T08:15:53.955Z,6.85
2023-02-07T08:18:48.848Z,7.47
2023-02-07T08:21:35.862Z,5.05
2023-02-07T08:24:16.866Z,4.97
2023-02-07T08:26:57.861Z,4.45
2023-02-07T08:29:45.863Z,4.82
2023-02-07T08:32:19.853Z,4.38
2023-02-07T08:35:07.853Z,4.97
2023-02-07T08:37:48.849Z,4.47
2023-02-07T08:40:29.922Z,6.10
2023-02-07T08:43:13.887Z,6.13
2023-02-07T08:46:03.013Z,6.50
2023-02-07T08:48:42.887Z,7.00
2023-02-07T08:51:30.872Z,5.45
2023-02-07T08:54:04.877Z,7.47
2023-02-07T08:56:52.848Z,8.07
2023-02-07T08:59:26.893Z,6.43
2023-02-07T09:02:14.889Z,6.45
2023-02-07T09:04:48.907Z,6.18
2023-02-07T09:07:37.898Z,7.20
2023-02-07T09:10:18.869Z,9.52
2023-02-07T09:12:59.923Z,8.80
2023-02-07T09:15:40.874Z,7.85
2023-02-07T09:18:28.837Z,7.25
2023-02-07T09:21:09.861Z,7.25
2023-02-07T09:23:57.847Z,8.35
2023-02-07T09:26:51.870Z,7.85
2023-02-07T09:29:45.861Z,8.65
2023-02-07T09:32:33.868Z,7.95
2023-02-07T09:35:08.433Z,6.07
2023-02-07T09:37:54.861Z,7.18
2023-02-07T09:40:30.042Z,7.25
2023-02-07T09:43:39.999Z,7.38
2023-02-07T09:46:36.865Z,5.28
2023-02-07T09:49:34.899Z,6.43
2023-02-07T09:52:10.944Z,5.38
2023-02-07T09:54:59.863Z,5.88
2023-02-07T09:57:43.861Z,5.55
2023-02-07T10:00:29.894Z,6.25
2023-02-07T10:03:19.002Z,4.47
2023-02-07T10:06:24.883Z,4.13
2023-02-07T10:09:26.888Z,4.80
2023-02-07T10:12:35.919Z,5.38
2023-02-07T10:15:21.978Z,6.00
2023-02-07T10:18:25.841Z,5.97
2023-02-07T10:21:37.852Z,6.07
2023-02-07T10:24:44.868Z,6.80
2023-02-07T10:28:09.889Z,6.85
2023-02-07T10:30:53.940Z,6.32
2023-02-07T10:33:49.870Z,6.65
2023-02-07T10:36:39.857Z,6.55
2023-02-07T10:39:18.643Z,5.57
2023-02-07T10:42:05.854Z,6.28
2023-02-07T10:44:39.919Z,5.43
2023-02-07T10:47:27.857Z,6.97
2023-02-07T10:50:02.933Z,7.15
2023-02-07T10:53:10.905Z,7.05
2023-02-07T10:55:49.993Z,6.90
2023-02-07T10:58:45.893Z,7.45
2023-02-07T11:01:31.047Z,6.72
2023-02-07T11:04:31.862Z,6.32
2023-02-07T11:07:16.910Z,5.07
2023-02-07T11:10:29.888Z,6.80
2023-02-07T11:13:11.869Z,6.88
2023-02-07T11:16:07.215Z,5.97
2023-02-07T11:18:56.905Z,6.28
2023-02-07T11:21:39.861Z,5.63
2023-02-07T11:24:35.702Z,9.80
2023-02-07T11:27:21.889Z,6.90
2023-02-07T11:30:12.856Z,6.10
2023-02-07T11:33:01.905Z,6.47
2023-02-07T11:35:49.902Z,7.45
2023-02-07T11:38:23.899Z,5.75
2023-02-07T11:41:14.861Z,6.05
2023-02-07T11:44:10.898Z,6.95
2023-02-07T11:47:01.910Z,6.23
2023-02-07T11:49:44.858Z,5.40
2023-02-07T11:52:26.013Z,5.93
2023-02-07T11:55:09.897Z,8.18
2023-02-07T11:57:52.991Z,7.47
2023-02-07T12:00:36.911Z,6.65
2023-02-07T12:03:35.914Z,7.65
2023-02-07T12:06:14.085Z,8.18
2023-02-07T12:09:01.905Z,7.53
2023-02-07T12:11:38.948Z,7.72
2023-02-07T12:14:29.876Z,7.07
2023-02-07T12:17:28.868Z,8.23
2023-02-07T12:20:36.901Z,6.82
2023-02-07T12:23:41.668Z,8.10
2023-02-07T12:26:24.885Z,8.30
2023-02-07T12:29:39.893Z,8.27
2023-02-07T12:32:13.930Z,7.53
2023-02-07T12:35:04.929Z,7.50
2023-02-07T12:38:03.906Z,8.07
2023-02-07T12:40:59.892Z,7.97
2023-02-07T12:43:37.895Z,9.05
2023-02-07T12:46:35.874Z,7.85
2023-02-07T12:49:36.908Z,9.98
2023-02-07T12:52:27.184Z,9.65
2023-02-07T12:55:19.900Z,9.10
2023-02-07T12:58:18.887Z,9.07
2023-02-07T13:01:01.960Z,9.10
2023-02-07T13:03:48.985Z,8.68
2023-02-07T13:06:43.950Z,7.32
2023-02-07T13:09:30.997Z,7.63
2023-02-07T13:12:23.923Z,8.45
2023-02-07T13:15:07.175Z,6.90
2023-02-07T13:18:14.877Z,7.93
2023-02-07T13:21:02.894Z,5.80
2023-02-07T13:23:53.911Z,4.72
2023-02-07T13:26:35.873Z,4.50
2023-02-07T13:29:30.910Z,5.80
2023-02-07T13:32:21.896Z,5.45
2023-02-07T13:35:08.015Z,4.45
2023-02-07T13:38:20.882Z,4.35
2023-02-07T13:41:05.993Z,4.28
2023-02-07T13:44:10.356Z,3.33
2023-02-07T13:46:56.457Z,3.63
2023-02-07T13:49:53.965Z,3.97
2023-02-07T13:52:45.895Z,3.90
2023-02-07T13:55:32.922Z,4.47
2023-02-07T13:58:31.883Z,4.57
2023-02-07T14:01:45.905Z,4.68
2023-02-07T14:04:52.892Z,4.32
2023-02-07T14:07:41.916Z,4.35
2023-02-07T14:10:54.888Z,5.70
2023-02-07T14:13:43.947Z,5.35
2023-02-07T14:16:20.121Z,5.43
2023-02-07T14:19:07.914Z,5.47
2023-02-07T14:21:52.998Z,8.38
2023-02-07T14:24:37.885Z,6.57
2023-02-07T14:27:38.970Z,4.63
2023-02-07T14:30:18.893Z,4.55
2023-02-07T14:33:25.927Z,4.88
2023-02-07T14:36:04.847Z,4.63
2023-02-07T14:38:53.881Z,4.05
2023-02-07T14:41:41.898Z,5.13
2023-02-07T14:44:48.927Z,6.57
2023-02-07T14:47:25.909Z,6.43
2023-02-07T14:50:13.895Z,7.22
2023-02-07T14:52:47.874Z,6.15
2023-02-07T14:55:38.961Z,5.75
2023-02-07T14:58:33.925Z,4.80
2023-02-07T15:01:37.921Z,4.88
2023-02-07T15:04:25.896Z,5.30
2023-02-07T15:07:06.945Z,4.63
2023-02-07T15:10:00.906Z,4.82
2023-02-07T15:12:49.945Z,4.93
2023-02-07T15:15:35.940Z,4.07
2023-02-07T15:18:24.921Z,5.68
2023-02-07T15:21:08.936Z,6.35
2023-02-07T15:24:05.916Z,6.72
2023-02-07T15:26:58.477Z,7.65
2023-02-07T15:29:34.979Z,7.97
2023-02-07T15:32:30.117Z,7.18
2023-02-07T15:35:05.016Z,4.20
2023-02-07T15:37:53.889Z,3.08
2023-02-07T15:40:29.978Z,6.45
2023-02-07T15:43:30.910Z,5.22
2023-02-07T15:46:16.924Z,5.35
2023-02-07T15:49:04.958Z,4.72
2023-02-07T15:51:47.951Z,4.85
2023-02-07T15:54:35.955Z,4.68
2023-02-07T15:57:09.970Z,5.68
2023-02-07T15:59:57.904Z,7.35
2023-02-07T16:02:35.996Z,11.02
2023-02-07T16:05:37.960Z,13.30
2023-02-07T16:08:20.904Z,15.38
2023-02-07T16:11:29.894Z,10.23
2023-02-07T16:14:19.901Z,18.45
2023-02-07T16:17:03.919Z,21.77
2023-02-07T16:19:52.913Z,25.30
2023-02-07T16:22:28.075Z,13.60
2023-02-07T16:25:19.912Z,12.38
2023-02-07T16:28:01.991Z,11.55
2023-02-07T16:30:49.035Z,10.18
2023-02-07T16:33:29.912Z,16.20
2023-02-07T16:36:19.896Z,16.05
2023-02-07T16:39:00.931Z,14.63
2023-02-07T16:41:58.888Z,13.43
2023-02-07T16:44:46.059Z,14.45
2023-02-07T16:47:28.187Z,26.40
2023-02-07T16:50:20.921Z,27.35
2023-02-07T16:52:59.488Z,17.15
2023-02-07T16:55:47.390Z,35.45
2023-02-07T16:58:35.040Z,41.78
2023-02-07T17:01:25.084Z,26.92
2023-02-07T17:03:58.984Z,22.35
2023-02-07T17:06:47.121Z,18.85
2023-02-07T17:09:29.024Z,26.48
2023-02-07T17:12:10.489Z,28.13
2023-02-07T17:14:58.122Z,24.38
2023-02-07T17:17:31.874Z,21.70
2023-02-07T17:20:30.923Z,22.65
2023-02-07T17:23:12.058Z,22.38
2023-02-07T17:25:52.986Z,37.05
2023-02-07T17:28:34.041Z,41.15
2023-02-07T17:31:24.195Z,38.20
2023-02-07T17:34:05.014Z,49.58
2023-02-07T17:36:54.923Z,41.03
2023-02-07T17:39:34.908Z,34.60
2023-02-07T17:42:22.930Z,41.10
2023-02-07T17:45:09.912Z,36.05
2023-02-07T17:47:43.977Z,41.20
2023-02-07T17:50:35.916Z,41.55
2023-02-07T17:53:16.918Z,43.20
2023-02-07T17:56:10.900Z,41.97
2023-02-07T17:58:59.092Z,40.83
2023-02-07T18:01:39.934Z,31.42
2023-02-07T18:04:33.972Z,21.75
2023-02-07T18:07:20.932Z,19.25
2023-02-07T18:09:55.204Z,25.10
2023-02-07T18:12:43.099Z,23.90
2023-02-07T18:15:25.094Z,17.90
2023-02-07T18:18:19.134Z,18.20
2023-02-07T18:21:13.817Z,18.70
2023-02-07T18:24:01.905Z,17.40
2023-02-07T18:26:42.905Z,21.17
2023-02-07T18:29:29.908Z,11.02
2023-02-07T18:32:10.906Z,9.82
2023-02-07T18:34:58.940Z,19.27
2023-02-07T18:37:39.919Z,14.18
2023-02-07T18:40:34.221Z,13.55
2023-02-07T18:43:20.913Z,15.10
2023-02-07T18:46:01.949Z,18.70
2023-02-07T18:48:50.904Z,20.90
2023-02-07T18:51:25.250Z,20.42
2023-02-07T18:54:13.164Z,8.80
2023-02-07T18:56:52.307Z,11.35
2023-02-07T18:59:40.911Z,26.02
2023-02-07T19:02:21.937Z,14.35
2023-02-07T19:05:15.908Z,12.40
2023-02-07T19:08:03.929Z,13.40
2023-02-07T19:10:44.914Z,15.32
2023-02-07T19:13:33.143Z,10.82
2023-02-07T19:16:40.093Z,13.88
2023-02-07T19:19:34.914Z,14.43
2023-02-07T19:22:34.643Z,20.67
2023-02-07T19:25:16.900Z,16.90
2023-02-07T19:28:10.914Z,15.60
2023-02-07T19:30:59.236Z,14.15
2023-02-07T19:33:40.126Z,13.95
2023-02-07T19:36:33.892Z,15.45
2023-02-07T19:39:20.933Z,29.38
2023-02-07T19:41:54.976Z,29.33
2023-02-07T19:44:41.911Z,23.13
2023-02-07T19:47:16.240Z,19.10
2023-02-07T19:50:03.118Z,12.98
2023-02-07T19:52:43.936Z,12.55
2023-02-07T19:55:38.117Z,12.02
2023-02-07T19:58:26.148Z,14.10
2023-02-07T20:01:06.925Z,14.20
2023-02-07T20:03:57.991Z,13.45
2023-02-07T20:06:33.220Z,20.10
2023-02-07T20:09:21.152Z,21.00
2023-02-07T20:12:02.130Z,19.75
2023-02-07T20:14:56.117Z,15.10
2023-02-07T20:17:44.106Z,14.48
2023-02-07T20:20:25.114Z,12.68
2023-02-07T20:23:13.122Z,15.50
2023-02-07T20:25:47.255Z,15.88
2023-02-07T20:28:35.926Z,16.52
2023-02-07T20:31:14.407Z,16.83
2023-02-07T20:34:02.934Z,13.38
2023-02-07T20:36:49.139Z,13.85
2023-02-07T20:39:38.149Z,14.27
2023-02-07T20:42:12.060Z,14.82
2023-02-07T20:44:59.145Z,12.45
2023-02-07T20:47:40.072Z,14.80
2023-02-07T20:50:20.916Z,13.40
2023-02-07T20:53:09.006Z,14.60
2023-02-07T20:55:42.991Z,10.57
2023-02-07T20:58:30.977Z,12.05
2023-02-07T21:01:19.078Z,7.78
2023-02-07T21:04:02.138Z,12.05
2023-02-07T21:06:42.976Z,15.18
2023-02-07T21:09:24.044Z,14.88
2023-02-07T21:12:04.927Z,10.93
2023-02-07T21:14:47.254Z,11.75
2023-02-07T21:17:26.994Z,12.20
2023-02-07T21:20:15.036Z,14.48
2023-02-07T21:22:48.933Z,10.68
2023-02-07T21:25:37.001Z,14.27
2023-02-07T21:28:11.310Z,15.52
2023-02-07T21:30:59.030Z,15.68
2023-02-07T21:33:38.956Z,12.70
2023-02-07T21:36:28.962Z,10.15
2023-02-07T21:39:24.998Z,9.32
2023-02-07T21:42:12.034Z,12.50
2023-02-07T21:44:46.124Z,12.40
2023-02-07T21:47:36.956Z,11.65
2023-02-07T21:50:11.396Z,12.85
2023-02-07T21:52:58.010Z,11.30
2023-02-07T21:55:32.086Z,12.82
2023-02-07T21:58:18.952Z,14.02
2023-02-07T22:00:53.065Z,12.95
2023-02-07T22:03:39.956Z,13.27
2023-02-07T22:06:14.086Z,12.05
2023-02-07T22:09:03.962Z,12.77
2023-02-07T22:11:40.074Z,11.23
2023-02-07T22:14:27.982Z,12.93
2023-02-07T22:17:03.230Z,12.85
2023-02-07T22:19:50.977Z,12.95
2023-02-07T22:22:31.105Z,10.82
2023-02-07T22:25:11.977Z,12.68
2023-02-07T22:27:52.098Z,12.13
2023-02-07T22:30:33.015Z,13.77
2023-02-07T22:33:16.044Z,14.55
2023-02-07T22:35:57.001Z,14.15
2023-02-07T22:38:37.968Z,14.50
2023-02-07T22:41:19.056Z,11.68
2023-02-07T22:43:59.946Z,13.13
2023-02-07T22:46:41.064Z,13.15
2023-02-07T22:49:20.942Z,12.13
2023-02-07T22:52:02.018Z,12.82
2023-02-07T22:54:42.964Z,13.40
2023-02-07T22:57:16.985Z,14.98
2023-02-07T23:00:06.974Z,13.57
2023-02-07T23:02:46.971Z,13.15
2023-02-07T23:05:35.001Z,11.90
2023-02-07T23:08:15.987Z,12.90
2023-02-07T23:11:03.981Z,11.50
2023-02-07T23:13:37.960Z,10.80
2023-02-07T23:16:37.986Z,10.18
2023-02-07T23:19:14.373Z,10.88
2023-02-07T23:22:02.022Z,9.27
2023-02-07T23:24:36.043Z,10.43
2023-02-07T23:27:23.986Z,9.30
2023-02-07T23:29:57.973Z,8.38
2023-02-07T23:32:45.970Z,10.52
2023-02-07T23:35:19.908Z,12.60
2023-02-07T23:38:07.975Z,12.48
2023-02-07T23:40:42.164Z,10.63
2023-02-07T23:43:31.013Z,13.02
2023-02-07T23:46:05.779Z,13.48
2023-02-07T23:48:52.956Z,10.27
2023-02-07T23:51:26.932Z,11.43
2023-02-07T23:54:14.966Z,13.35
2023-02-07T23:56:48.941Z,12.70
2023-02-07T23:59:37.038Z,14.05
